sensor_id;sensor_type;location;lat;lon;timestamp;pressure;altitude;pressure_sealevel;temperature;humidity
61109;BME280;46995;55.740;37.402;2022-10-20T00:00:57;98961.22;;;7.52;73.34
61109;BME280;46995;55.740;37.402;2022-10-20T00:03:23;98968.13;;;7.53;73.71
61109;BME280;46995;55.740;37.402;2022-10-20T00:05:49;98962.66;;;7.45;73.77
61109;BME280;46995;55.740;37.402;2022-10-20T00:08:15;98965.06;;;7.48;73.40
61109;BME280;46995;55.740;37.402;2022-10-20T00:10:42;98971.44;;;7.55;73.62
61109;BME280;46995;55.740;37.402;2022-10-20T00:13:08;98979.44;;;7.54;73.46
61109;BME280;46995;55.740;37.402;2022-10-20T00:15:33;98974.72;;;7.48;73.38
61109;BME280;46995;55.740;37.402;2022-10-20T00:18:00;98967.19;;;7.43;73.21
61109;BME280;46995;55.740;37.402;2022-10-20T00:20:26;98982.59;;;7.48;73.33
61109;BME280;46995;55.740;37.402;2022-10-20T00:22:51;98982.72;;;7.46;73.36
61109;BME280;46995;55.740;37.402;2022-10-20T00:25:17;98996.59;;;7.48;73.32
61109;BME280;46995;55.740;37.402;2022-10-20T00:27:43;98990.72;;;7.45;73.15
61109;BME280;46995;55.740;37.402;2022-10-20T00:30:09;98980.41;;;7.32;73.22
61109;BME280;46995;55.740;37.402;2022-10-20T00:32:34;98978.38;;;7.24;73.40
61109;BME280;46995;55.740;37.402;2022-10-20T00:35:00;98990.91;;;7.32;73.10
61109;BME280;46995;55.740;37.402;2022-10-20T00:37:26;98997.94;;;7.32;73.52
61109;BME280;46995;55.740;37.402;2022-10-20T00:39:51;99007.50;;;7.33;73.77
61109;BME280;46995;55.740;37.402;2022-10-20T00:42:18;98999.75;;;7.31;73.83
61109;BME280;46995;55.740;37.402;2022-10-20T00:44:58;99019.03;;;7.41;74.19
61109;BME280;46995;55.740;37.402;2022-10-20T00:47:40;99032.88;;;7.43;74.18
61109;BME280;46995;55.740;37.402;2022-10-20T00:52:40;99015.38;;;7.33;74.52
61109;BME280;46995;55.740;37.402;2022-10-20T00:55:09;99019.53;;;7.35;74.39
61109;BME280;46995;55.740;37.402;2022-10-20T00:57:36;99028.13;;;7.37;74.57
61109;BME280;46995;55.740;37.402;2022-10-20T01:00:06;99029.09;;;7.36;74.92
61109;BME280;46995;55.740;37.402;2022-10-20T01:02:34;99027.69;;;7.32;74.49
61109;BME280;46995;55.740;37.402;2022-10-20T01:05:00;99032.09;;;7.32;74.68
61109;BME280;46995;55.740;37.402;2022-10-20T01:07:26;99020.16;;;7.28;74.74
61109;BME280;46995;55.740;37.402;2022-10-20T01:09:52;99023.75;;;7.27;74.67
61109;BME280;46995;55.740;37.402;2022-10-20T01:12:20;99038.19;;;7.32;74.69
61109;BME280;46995;55.740;37.402;2022-10-20T01:18:12;99041.75;;;7.31;75.10
61109;BME280;46995;55.740;37.402;2022-10-20T01:26:21;99060.03;;;7.33;75.12
61109;BME280;46995;55.740;37.402;2022-10-20T01:29:29;99061.38;;;7.27;75.06
61109;BME280;46995;55.740;37.402;2022-10-20T01:32:11;99064.94;;;7.26;75.13
61109;BME280;46995;55.740;37.402;2022-10-20T01:35:00;99066.63;;;7.27;75.39
61109;BME280;46995;55.740;37.402;2022-10-20T01:38:03;99073.78;;;7.25;75.80
61109;BME280;46995;55.740;37.402;2022-10-20T01:40:47;99071.50;;;7.20;75.55
61109;BME280;46995;55.740;37.402;2022-10-20T01:43:18;99059.25;;;7.10;75.88
61109;BME280;46995;55.740;37.402;2022-10-20T01:45:47;99076.19;;;7.17;75.82
61109;BME280;46995;55.740;37.402;2022-10-20T01:48:16;99083.06;;;7.18;75.82
61109;BME280;46995;55.740;37.402;2022-10-20T01:50:47;99060.91;;;7.11;75.89
61109;BME280;46995;55.740;37.402;2022-10-20T01:53:16;99086.69;;;7.17;75.94
61109;BME280;46995;55.740;37.402;2022-10-20T01:55:42;99070.22;;;7.04;75.93
61109;BME280;46995;55.740;37.402;2022-10-20T02:00:58;99098.25;;;7.14;75.72
61109;BME280;46995;55.740;37.402;2022-10-20T02:06:17;99088.81;;;7.12;76.19
61109;BME280;46995;55.740;37.402;2022-10-20T02:14:04;99105.75;;;7.19;75.91
61109;BME280;46995;55.740;37.402;2022-10-20T02:16:39;99116.28;;;7.19;76.38
61109;BME280;46995;55.740;37.402;2022-10-20T02:19:07;99115.22;;;7.21;76.11
61109;BME280;46995;55.740;37.402;2022-10-20T02:21:35;99100.28;;;7.11;76.02
61109;BME280;46995;55.740;37.402;2022-10-20T02:24:03;99115.78;;;7.14;76.17
61109;BME280;46995;55.740;37.402;2022-10-20T02:26:31;99124.88;;;6.99;76.12
61109;BME280;46995;55.740;37.402;2022-10-20T02:29:00;99117.25;;;6.85;77.10
61109;BME280;46995;55.740;37.402;2022-10-20T02:31:28;99112.22;;;6.59;77.01
61109;BME280;46995;55.740;37.402;2022-10-20T02:33:55;99110.53;;;6.47;77.88
61109;BME280;46995;55.740;37.402;2022-10-20T02:36:26;99133.88;;;6.50;78.21
61109;BME280;46995;55.740;37.402;2022-10-20T02:38:52;99142.59;;;6.51;78.18
61109;BME280;46995;55.740;37.402;2022-10-20T02:41:18;99144.63;;;6.47;78.21
61109;BME280;46995;55.740;37.402;2022-10-20T02:43:44;99151.06;;;6.54;78.61
61109;BME280;46995;55.740;37.402;2022-10-20T02:46:09;99150.00;;;6.57;78.40
61109;BME280;46995;55.740;37.402;2022-10-20T02:48:35;99142.47;;;6.52;78.17
61109;BME280;46995;55.740;37.402;2022-10-20T02:51:04;99152.75;;;6.66;78.37
61109;BME280;46995;55.740;37.402;2022-10-20T02:53:31;99150.03;;;6.68;78.16
61109;BME280;46995;55.740;37.402;2022-10-20T02:55:57;99147.63;;;6.65;78.32
61109;BME280;46995;55.740;37.402;2022-10-20T02:58:23;99156.22;;;6.67;78.28
61109;BME280;46995;55.740;37.402;2022-10-20T03:00:49;99143.91;;;6.56;78.41
61109;BME280;46995;55.740;37.402;2022-10-20T03:03:18;99167.81;;;6.64;78.36
61109;BME280;46995;55.740;37.402;2022-10-20T03:05:44;99176.97;;;6.70;78.22
61109;BME280;46995;55.740;37.402;2022-10-20T03:08:10;99179.47;;;6.71;78.70
61109;BME280;46995;55.740;37.402;2022-10-20T03:10:36;99182.59;;;6.76;78.62
61109;BME280;46995;55.740;37.402;2022-10-20T03:13:04;99186.66;;;6.80;78.55
61109;BME280;46995;55.740;37.402;2022-10-20T03:15:30;99185.94;;;6.78;78.30
61109;BME280;46995;55.740;37.402;2022-10-20T03:17:56;99187.38;;;6.82;78.65
61109;BME280;46995;55.740;37.402;2022-10-20T03:20:22;99171.41;;;6.74;78.41
61109;BME280;46995;55.740;37.402;2022-10-20T03:22:48;99182.59;;;6.76;78.60
61109;BME280;46995;55.740;37.402;2022-10-20T03:25:14;99181.75;;;6.76;79.08
61109;BME280;46995;55.740;37.402;2022-10-20T03:27:40;99196.19;;;6.81;79.06
61109;BME280;46995;55.740;37.402;2022-10-20T03:30:06;99182.72;;;6.75;79.01
61109;BME280;46995;55.740;37.402;2022-10-20T03:32:32;99196.09;;;6.83;79.19
61109;BME280;46995;55.740;37.402;2022-10-20T03:34:58;99203.41;;;6.91;79.03
61109;BME280;46995;55.740;37.402;2022-10-20T03:37:24;99202.88;;;6.86;78.51
61109;BME280;46995;55.740;37.402;2022-10-20T03:39:49;99193.94;;;6.77;79.09
61109;BME280;46995;55.740;37.402;2022-10-20T03:42:15;99191.19;;;6.78;79.04
61109;BME280;46995;55.740;37.402;2022-10-20T03:44:41;99207.81;;;6.90;78.83
61109;BME280;46995;55.740;37.402;2022-10-20T03:47:10;99192.63;;;6.82;78.61
61109;BME280;46995;55.740;37.402;2022-10-20T03:49:37;99191.78;;;6.82;78.67
61109;BME280;46995;55.740;37.402;2022-10-20T03:52:04;99219.38;;;6.99;78.84
61109;BME280;46995;55.740;37.402;2022-10-20T03:54:30;99209.59;;;6.90;78.65
61109;BME280;46995;55.740;37.402;2022-10-20T03:56:57;99225.09;;;6.93;78.60
61109;BME280;46995;55.740;37.402;2022-10-20T03:59:22;99225.09;;;6.93;78.72
61109;BME280;46995;55.740;37.402;2022-10-20T04:01:48;99226.53;;;6.97;79.16
61109;BME280;46995;55.740;37.402;2022-10-20T04:04:14;99215.69;;;6.90;79.08
61109;BME280;46995;55.740;37.402;2022-10-20T04:06:40;99228.56;;;6.93;78.89
61109;BME280;46995;55.740;37.402;2022-10-20T04:09:05;99206.34;;;6.75;78.89
61109;BME280;46995;55.740;37.402;2022-10-20T04:11:31;99223.53;;;6.79;79.33
61109;BME280;46995;55.740;37.402;2022-10-20T04:13:59;99220.28;;;6.75;79.18
61109;BME280;46995;55.740;37.402;2022-10-20T04:16:24;99241.44;;;6.96;78.94
61109;BME280;46995;55.740;37.402;2022-10-20T04:18:51;99218.34;;;6.66;78.76
61109;BME280;46995;55.740;37.402;2022-10-20T04:21:17;99224.44;;;6.67;79.01
61109;BME280;46995;55.740;37.402;2022-10-20T04:23:43;99243.91;;;6.75;78.84
61109;BME280;46995;55.740;37.402;2022-10-20T04:26:10;99254.78;;;6.82;78.70
61109;BME280;46995;55.740;37.402;2022-10-20T04:28:36;99247.72;;;6.71;78.33
61109;BME280;46995;55.740;37.402;2022-10-20T04:31:02;99252.13;;;6.71;78.40
61109;BME280;46995;55.740;37.402;2022-10-20T04:33:28;99254.88;;;6.69;78.51
61109;BME280;46995;55.740;37.402;2022-10-20T04:36:06;99256.53;;;6.70;78.80
61109;BME280;46995;55.740;37.402;2022-10-20T04:38:33;99262.00;;;6.67;78.90
61109;BME280;46995;55.740;37.402;2022-10-20T04:41:00;99255.31;;;6.63;78.71
61109;BME280;46995;55.740;37.402;2022-10-20T04:43:32;99266.19;;;6.70;78.83
61109;BME280;46995;55.740;37.402;2022-10-20T04:46:03;99272.66;;;6.77;78.37
61109;BME280;46995;55.740;37.402;2022-10-20T04:48:30;99268.50;;;6.74;77.99
61109;BME280;46995;55.740;37.402;2022-10-20T04:51:07;99271.97;;;6.75;78.28
61109;BME280;46995;55.740;37.402;2022-10-20T04:53:33;99276.13;;;6.77;77.97
61109;BME280;46995;55.740;37.402;2022-10-20T04:55:59;99274.22;;;6.79;77.78
61109;BME280;46995;55.740;37.402;2022-10-20T04:58:25;99283.19;;;6.88;78.20
61109;BME280;46995;55.740;37.402;2022-10-20T05:00:51;99292.50;;;6.92;78.02
61109;BME280;46995;55.740;37.402;2022-10-20T05:03:17;99294.53;;;6.89;77.77
61109;BME280;46995;55.740;37.402;2022-10-20T05:05:47;99285.69;;;6.78;78.28
61109;BME280;46995;55.740;37.402;2022-10-20T05:08:13;99290.94;;;6.78;78.40
61109;BME280;46995;55.740;37.402;2022-10-20T05:10:39;99289.47;;;6.74;78.65
61109;BME280;46995;55.740;37.402;2022-10-20T05:13:04;99305.97;;;6.88;78.38
61109;BME280;46995;55.740;37.402;2022-10-20T05:15:30;99305.25;;;6.86;78.54
61109;BME280;46995;55.740;37.402;2022-10-20T05:17:57;99313.63;;;6.91;78.66
61109;BME280;46995;55.740;37.402;2022-10-20T05:20:30;99314.34;;;6.93;79.18
61109;BME280;46995;55.740;37.402;2022-10-20T05:22:55;99326.63;;;6.92;79.58
61109;BME280;46995;55.740;37.402;2022-10-20T05:25:21;99329.03;;;6.95;79.30
61109;BME280;46995;55.740;37.402;2022-10-20T05:27:47;99331.78;;;6.94;78.74
61109;BME280;46995;55.740;37.402;2022-10-20T05:30:13;99335.44;;;6.80;78.58
61109;BME280;46995;55.740;37.402;2022-10-20T05:32:38;99339.88;;;6.67;78.23
61109;BME280;46995;55.740;37.402;2022-10-20T05:35:05;99293.66;;;6.29;78.10
61109;BME280;46995;55.740;37.402;2022-10-20T05:37:34;99318.22;;;6.28;78.35
61109;BME280;46995;55.740;37.402;2022-10-20T05:40:00;99329.53;;;6.29;78.48
61109;BME280;46995;55.740;37.402;2022-10-20T05:42:28;99357.75;;;6.38;78.13
61109;BME280;46995;55.740;37.402;2022-10-20T05:44:54;99351.78;;;6.36;78.00
61109;BME280;46995;55.740;37.402;2022-10-20T05:47:20;99336.03;;;6.36;77.94
61109;BME280;46995;55.740;37.402;2022-10-20T05:49:46;99357.34;;;6.55;78.08
61109;BME280;46995;55.740;37.402;2022-10-20T05:52:12;99348.84;;;6.64;79.00
61109;BME280;46995;55.740;37.402;2022-10-20T05:54:38;99352.81;;;6.81;77.85
61109;BME280;46995;55.740;37.402;2022-10-20T05:57:03;99343.97;;;6.95;76.11
61109;BME280;46995;55.740;37.402;2022-10-20T05:59:29;99363.38;;;7.16;75.21
61109;BME280;46995;55.740;37.402;2022-10-20T06:02:00;99337.78;;;7.07;75.78
61109;BME280;46995;55.740;37.402;2022-10-20T06:04:26;99354.25;;;7.09;73.48
61109;BME280;46995;55.740;37.402;2022-10-20T06:06:54;99371.03;;;7.30;72.93
61109;BME280;46995;55.740;37.402;2022-10-20T06:09:21;99368.41;;;7.30;73.53
61109;BME280;46995;55.740;37.402;2022-10-20T06:11:50;99377.88;;;7.44;72.47
61109;BME280;46995;55.740;37.402;2022-10-20T06:14:18;99371.56;;;7.46;72.91
61109;BME280;46995;55.740;37.402;2022-10-20T06:16:49;99367.97;;;7.47;72.14
61109;BME280;46995;55.740;37.402;2022-10-20T06:19:15;99359.81;;;7.39;71.20
61109;BME280;46995;55.740;37.402;2022-10-20T06:21:40;99378.34;;;7.49;71.29
61109;BME280;46995;55.740;37.402;2022-10-20T06:24:06;99390.44;;;7.51;71.74
61109;BME280;46995;55.740;37.402;2022-10-20T06:26:34;99387.31;;;7.46;70.79
61109;BME280;46995;55.740;37.402;2022-10-20T06:29:05;99398.06;;;7.54;69.68
61109;BME280;46995;55.740;37.402;2022-10-20T06:31:36;99398.22;;;7.53;68.90
61109;BME280;46995;55.740;37.402;2022-10-20T06:34:04;99396.16;;;7.45;71.28
61109;BME280;46995;55.740;37.402;2022-10-20T06:36:34;99400.47;;;7.46;69.64
61109;BME280;46995;55.740;37.402;2022-10-20T06:39:00;99396.63;;;7.50;71.30
61109;BME280;46995;55.740;37.402;2022-10-20T06:41:26;99398.56;;;7.59;71.44
61109;BME280;46995;55.740;37.402;2022-10-20T06:43:53;99396.19;;;7.56;70.38
61109;BME280;46995;55.740;37.402;2022-10-20T06:46:26;99396.91;;;7.58;70.10
61109;BME280;46995;55.740;37.402;2022-10-20T06:48:53;99390.78;;;7.47;69.15
61109;BME280;46995;55.740;37.402;2022-10-20T06:51:19;99390.69;;;7.48;69.80
61109;BME280;46995;55.740;37.402;2022-10-20T06:53:49;99383.22;;;7.31;68.75
61109;BME280;46995;55.740;37.402;2022-10-20T06:56:23;99398.53;;;7.37;68.62
61109;BME280;46995;55.740;37.402;2022-10-20T06:58:51;99379.47;;;7.22;69.69
61109;BME280;46995;55.740;37.402;2022-10-20T07:01:28;99382.91;;;7.12;68.19
61109;BME280;46995;55.740;37.402;2022-10-20T07:03:56;99402.13;;;7.12;69.47
61109;BME280;46995;55.740;37.402;2022-10-20T07:06:24;99407.00;;;7.06;71.09
61109;BME280;46995;55.740;37.402;2022-10-20T07:08:51;99416.28;;;6.99;69.81
61109;BME280;46995;55.740;37.402;2022-10-20T07:11:23;99416.13;;;6.89;69.47
61109;BME280;46995;55.740;37.402;2022-10-20T07:13:49;99408.91;;;6.80;69.48
61109;BME280;46995;55.740;37.402;2022-10-20T07:16:18;99409.72;;;6.80;69.55
61109;BME280;46995;55.740;37.402;2022-10-20T07:18:44;99423.41;;;6.97;69.12
61109;BME280;46995;55.740;37.402;2022-10-20T07:21:15;99414.41;;;7.12;68.15
61109;BME280;46995;55.740;37.402;2022-10-20T07:23:41;99409.50;;;7.31;68.75
61109;BME280;46995;55.740;37.402;2022-10-20T07:28:46;99420.16;;;8.09;67.61
61109;BME280;46995;55.740;37.402;2022-10-20T07:31:16;99403.41;;;8.21;65.75
61109;BME280;46995;55.740;37.402;2022-10-20T07:33:42;99418.50;;;8.41;66.21
61109;BME280;46995;55.740;37.402;2022-10-20T07:36:16;99405.81;;;8.58;65.83
61109;BME280;46995;55.740;37.402;2022-10-20T07:38:43;99421.75;;;8.88;64.26
61109;BME280;46995;55.740;37.402;2022-10-20T07:41:09;99417.91;;;8.92;63.35
61109;BME280;46995;55.740;37.402;2022-10-20T07:43:36;99433.13;;;8.88;62.64
61109;BME280;46995;55.740;37.402;2022-10-20T07:46:03;99438.31;;;8.79;61.94
61109;BME280;46995;55.740;37.402;2022-10-20T07:48:30;99436.28;;;8.71;62.51
61109;BME280;46995;55.740;37.402;2022-10-20T07:54:01;99430.19;;;8.26;60.60
61109;BME280;46995;55.740;37.402;2022-10-20T07:56:34;99445.38;;;8.23;61.87
61109;BME280;46995;55.740;37.402;2022-10-20T07:59:01;99430.69;;;8.20;62.10
61109;BME280;46995;55.740;37.402;2022-10-20T08:01:27;99433.53;;;8.17;61.93
61109;BME280;46995;55.740;37.402;2022-10-20T08:03:52;99407.72;;;8.00;62.29
61109;BME280;46995;55.740;37.402;2022-10-20T08:06:18;99433.28;;;8.09;61.76
61109;BME280;46995;55.740;37.402;2022-10-20T08:08:44;99438.19;;;8.02;63.48
61109;BME280;46995;55.740;37.402;2022-10-20T08:11:10;99447.88;;;8.13;62.77
61109;BME280;46995;55.740;37.402;2022-10-20T08:13:36;99437.00;;;8.18;62.32
61109;BME280;46995;55.740;37.402;2022-10-20T08:16:04;99455.22;;;8.32;60.45
61109;BME280;46995;55.740;37.402;2022-10-20T08:18:29;99440.69;;;8.04;60.66
61109;BME280;46995;55.740;37.402;2022-10-20T08:21:14;99447.84;;;7.91;62.54
61109;BME280;46995;55.740;37.402;2022-10-20T08:23:42;99457.03;;;7.74;61.56
61109;BME280;46995;55.740;37.402;2022-10-20T08:26:09;99449.69;;;7.55;61.59
61109;BME280;46995;55.740;37.402;2022-10-20T08:28:35;99444.53;;;7.43;61.78
61109;BME280;46995;55.740;37.402;2022-10-20T08:31:05;99448.69;;;7.45;62.18
61109;BME280;46995;55.740;37.402;2022-10-20T08:33:32;99456.88;;;7.53;61.73
61109;BME280;46995;55.740;37.402;2022-10-20T08:36:04;99462.47;;;7.60;62.15
61109;BME280;46995;55.740;37.402;2022-10-20T08:38:30;99448.50;;;7.59;62.28
61109;BME280;46995;55.740;37.402;2022-10-20T08:40:57;99458.38;;;7.80;61.36
61109;BME280;46995;55.740;37.402;2022-10-20T08:43:24;99461.47;;;7.85;61.71
61109;BME280;46995;55.740;37.402;2022-10-20T08:45:49;99441.88;;;7.78;60.75
61109;BME280;46995;55.740;37.402;2022-10-20T08:48:26;99457.75;;;7.76;60.65
61109;BME280;46995;55.740;37.402;2022-10-20T08:50:53;99451.13;;;7.59;60.83
61109;BME280;46995;55.740;37.402;2022-10-20T08:53:21;99453.25;;;7.54;60.24
61109;BME280;46995;55.740;37.402;2022-10-20T08:55:49;99455.03;;;7.43;60.16
61109;BME280;46995;55.740;37.402;2022-10-20T08:58:21;99463.03;;;7.41;60.27
61109;BME280;46995;55.740;37.402;2022-10-20T09:00:58;99436.66;;;7.19;60.32
61109;BME280;46995;55.740;37.402;2022-10-20T09:03:32;99465.84;;;7.38;59.97
61109;BME280;46995;55.740;37.402;2022-10-20T09:06:16;99480.06;;;7.36;60.65
61109;BME280;46995;55.740;37.402;2022-10-20T09:08:42;99446.75;;;7.12;60.14
61109;BME280;46995;55.740;37.402;2022-10-20T09:11:15;99473.44;;;7.19;59.83
61109;BME280;46995;55.740;37.402;2022-10-20T09:13:41;99467.66;;;7.14;60.67
61109;BME280;46995;55.740;37.402;2022-10-20T09:16:26;99451.47;;;7.20;60.71
61109;BME280;46995;55.740;37.402;2022-10-20T09:18:59;99483.13;;;7.53;59.93
61109;BME280;46995;55.740;37.402;2022-10-20T09:21:27;99463.56;;;7.57;60.15
61109;BME280;46995;55.740;37.402;2022-10-20T09:23:56;99471.69;;;7.65;59.35
61109;BME280;46995;55.740;37.402;2022-10-20T09:26:42;99484.63;;;7.69;58.93
61109;BME280;46995;55.740;37.402;2022-10-20T09:29:14;99484.09;;;7.52;58.89
61109;BME280;46995;55.740;37.402;2022-10-20T09:31:44;99483.44;;;7.49;59.27
61109;BME280;46995;55.740;37.402;2022-10-20T09:34:30;99485.72;;;7.42;60.31
61109;BME280;46995;55.740;37.402;2022-10-20T09:37:03;99471.09;;;7.27;60.07
61109;BME280;46995;55.740;37.402;2022-10-20T09:39:47;99490.47;;;7.37;60.12
61109;BME280;46995;55.740;37.402;2022-10-20T09:42:18;99466.53;;;7.29;60.59
61109;BME280;46995;55.740;37.402;2022-10-20T09:47:29;99482.81;;;7.34;60.14
61109;BME280;46995;55.740;37.402;2022-10-20T09:50:00;99482.81;;;7.34;60.65
61109;BME280;46995;55.740;37.402;2022-10-20T09:52:36;99476.38;;;7.38;60.04
61109;BME280;46995;55.740;37.402;2022-10-20T09:55:23;99475.56;;;7.49;60.80
61109;BME280;46995;55.740;37.402;2022-10-20T09:57:50;99485.78;;;7.64;60.77
61109;BME280;46995;55.740;37.402;2022-10-20T10:00:32;99482.19;;;7.65;60.86
61109;BME280;46995;55.740;37.402;2022-10-20T10:03:16;99489.91;;;7.80;61.51
61109;BME280;46995;55.740;37.402;2022-10-20T10:05:50;99490.91;;;7.90;60.89
61109;BME280;46995;55.740;37.402;2022-10-20T10:08:18;99484.66;;;7.91;60.80
61109;BME280;46995;55.740;37.402;2022-10-20T10:10:56;99476.06;;;7.89;60.24
61109;BME280;46995;55.740;37.402;2022-10-20T10:13:25;99489.22;;;7.89;59.28
61109;BME280;46995;55.740;37.402;2022-10-20T10:16:00;99489.91;;;7.80;59.38
61109;BME280;46995;55.740;37.402;2022-10-20T10:18:26;99494.16;;;7.70;59.48
61109;BME280;46995;55.740;37.402;2022-10-20T10:20:58;99492.97;;;7.62;59.69
61109;BME280;46995;55.740;37.402;2022-10-20T10:23:27;99498.44;;;7.59;60.67
61109;BME280;46995;55.740;37.402;2022-10-20T10:25:53;99494.59;;;7.52;60.45
61109;BME280;46995;55.740;37.402;2022-10-20T10:28:38;99493.47;;;7.44;61.17
61109;BME280;46995;55.740;37.402;2022-10-20T10:31:25;99504.31;;;7.39;61.47
61109;BME280;46995;55.740;37.402;2022-10-20T10:33:54;99486.00;;;7.27;60.55
61109;BME280;46995;55.740;37.402;2022-10-20T10:36:32;99496.44;;;7.39;60.94
61109;BME280;46995;55.740;37.402;2022-10-20T10:38:59;99498.84;;;7.42;59.91
61109;BME280;46995;55.740;37.402;2022-10-20T10:47:19;99498.00;;;7.42;60.73
61109;BME280;46995;55.740;37.402;2022-10-20T10:50:01;99507.72;;;7.52;62.40
61109;BME280;46995;55.740;37.402;2022-10-20T10:52:37;99506.59;;;7.68;60.71
61109;BME280;46995;55.740;37.402;2022-10-20T10:55:16;99509.94;;;7.70;59.10
61109;BME280;46995;55.740;37.402;2022-10-20T11:11:30;99508.84;;;7.61;60.74
61109;BME280;46995;55.740;37.402;2022-10-20T11:14:14;99511.25;;;7.64;61.42
61109;BME280;46995;55.740;37.402;2022-10-20T11:20:09;99490.88;;;7.55;60.48
61109;BME280;46995;55.740;37.402;2022-10-20T11:28:29;99516.63;;;7.62;59.77
61109;BME280;46995;55.740;37.402;2022-10-20T11:30:56;99513.03;;;7.63;59.96
61109;BME280;46995;55.740;37.402;2022-10-20T11:33:28;99479.50;;;7.43;60.25
61109;BME280;46995;55.740;37.402;2022-10-20T11:36:02;99518.59;;;7.59;59.73
61109;BME280;46995;55.740;37.402;2022-10-20T11:38:29;99519.94;;;7.53;60.26
61109;BME280;46995;55.740;37.402;2022-10-20T11:41:07;99498.50;;;7.47;60.75
61109;BME280;46995;55.740;37.402;2022-10-20T11:43:52;99504.38;;;7.50;59.75
61109;BME280;46995;55.740;37.402;2022-10-20T11:48:53;99511.31;;;7.51;60.52
61109;BME280;46995;55.740;37.402;2022-10-20T12:16:05;99532.78;;;7.45;60.04
61109;BME280;46995;55.740;37.402;2022-10-20T12:18:35;99531.94;;;7.45;60.05
61109;BME280;46995;55.740;37.402;2022-10-20T12:21:02;99512.13;;;7.28;59.77
61109;BME280;46995;55.740;37.402;2022-10-20T12:28:56;99524.16;;;7.43;60.54
61109;BME280;46995;55.740;37.402;2022-10-20T12:31:22;99514.50;;;7.44;60.34
61109;BME280;46995;55.740;37.402;2022-10-20T12:39:04;99526.28;;;7.38;60.33
61109;BME280;46995;55.740;37.402;2022-10-20T12:41:43;99536.34;;;7.44;60.24
61109;BME280;46995;55.740;37.402;2022-10-20T12:44:15;99530.16;;;7.45;60.90
61109;BME280;46995;55.740;37.402;2022-10-20T12:46:57;99534.28;;;7.60;60.77
61109;BME280;46995;55.740;37.402;2022-10-20T12:49:31;99535.00;;;7.62;60.65
61109;BME280;46995;55.740;37.402;2022-10-20T12:51:59;99527.69;;;7.55;60.37
61109;BME280;46995;55.740;37.402;2022-10-20T12:54:27;99545.41;;;7.64;61.47
61109;BME280;46995;55.740;37.402;2022-10-20T12:56:58;99543.06;;;7.48;60.33
61109;BME280;46995;55.740;37.402;2022-10-20T13:20:45;99555.72;;;6.45;63.74
61109;BME280;46995;55.740;37.402;2022-10-20T13:23:15;99562.63;;;6.33;64.36
61109;BME280;46995;55.740;37.402;2022-10-20T13:25:45;99578.66;;;6.29;64.50
61109;BME280;46995;55.740;37.402;2022-10-20T13:45:18;99586.34;;;6.57;64.57
61109;BME280;46995;55.740;37.402;2022-10-20T13:47:49;99581.09;;;6.57;64.61
61109;BME280;46995;55.740;37.402;2022-10-20T13:50:27;99575.44;;;6.51;64.61
61109;BME280;46995;55.740;37.402;2022-10-20T13:52:57;99583.63;;;6.46;63.88
61109;BME280;46995;55.740;37.402;2022-10-20T13:55:26;99609.00;;;6.46;64.76
61109;BME280;46995;55.740;37.402;2022-10-20T13:58:01;99603.66;;;6.34;64.76
61109;BME280;46995;55.740;37.402;2022-10-20T14:00:31;99601.03;;;6.34;65.10
61109;BME280;46995;55.740;37.402;2022-10-20T14:03:15;99601.56;;;6.27;65.37
61109;BME280;46995;55.740;37.402;2022-10-20T14:05:41;99593.75;;;6.13;65.77
61109;BME280;46995;55.740;37.402;2022-10-20T14:08:12;99597.63;;;6.07;65.55
61109;BME280;46995;55.740;37.402;2022-10-20T14:10:48;99604.38;;;6.11;65.87
61109;BME280;46995;55.740;37.402;2022-10-20T14:13:18;99589.03;;;6.05;65.93
61109;BME280;46995;55.740;37.402;2022-10-20T14:15:47;99607.75;;;6.26;65.86
61109;BME280;46995;55.740;37.402;2022-10-20T14:18:34;99613.59;;;6.29;66.01
61109;BME280;46995;55.740;37.402;2022-10-20T14:21:06;99594.72;;;6.12;65.96
61109;BME280;46995;55.740;37.402;2022-10-20T14:23:37;99611.78;;;6.05;66.63
61109;BME280;46995;55.740;37.402;2022-10-20T14:26:16;99609.34;;;5.89;67.25
61109;BME280;46995;55.740;37.402;2022-10-20T14:28:44;99606.09;;;5.71;67.41
61109;BME280;46995;55.740;37.402;2022-10-20T14:31:15;99613.41;;;5.66;68.50
61109;BME280;46995;55.740;37.402;2022-10-20T14:33:45;99617.19;;;5.62;69.01
61109;BME280;46995;55.740;37.402;2022-10-20T14:36:22;99593.00;;;5.44;68.72
61109;BME280;46995;55.740;37.402;2022-10-20T14:38:59;99611.25;;;5.46;68.98
61109;BME280;46995;55.740;37.402;2022-10-20T14:41:26;99620.44;;;5.39;69.26
61109;BME280;46995;55.740;37.402;2022-10-20T14:44:01;99615.44;;;5.22;69.93
61109;BME280;46995;55.740;37.402;2022-10-20T14:46:40;99627.88;;;5.18;70.21
61109;BME280;46995;55.740;37.402;2022-10-20T14:49:33;99632.44;;;5.15;70.21
61109;BME280;46995;55.740;37.402;2022-10-20T14:52:17;99629.94;;;4.99;70.76
61109;BME280;46995;55.740;37.402;2022-10-20T14:54:46;99628.72;;;4.90;70.52
61109;BME280;46995;55.740;37.402;2022-10-20T15:00:19;99641.63;;;4.79;71.72
61109;BME280;46995;55.740;37.402;2022-10-20T15:02:46;99646.47;;;4.71;71.21
61109;BME280;46995;55.740;37.402;2022-10-20T15:05:37;99649.75;;;4.60;72.02
61109;BME280;46995;55.740;37.402;2022-10-20T15:08:17;99648.34;;;4.55;71.90
61109;BME280;46995;55.740;37.402;2022-10-20T15:10:45;99650.63;;;4.45;71.85
61109;BME280;46995;55.740;37.402;2022-10-20T15:13:26;99653.44;;;4.42;72.01
61109;BME280;46995;55.740;37.402;2022-10-20T15:15:53;99654.84;;;4.34;72.00
61109;BME280;46995;55.740;37.402;2022-10-20T15:18:20;99656.50;;;4.35;71.77
61109;BME280;46995;55.740;37.402;2022-10-20T15:20:50;99664.81;;;4.27;71.92
61109;BME280;46995;55.740;37.402;2022-10-20T15:23:16;99664.72;;;4.29;71.13
61109;BME280;46995;55.740;37.402;2022-10-20T15:25:59;99678.22;;;4.21;71.49
61109;BME280;46995;55.740;37.402;2022-10-20T15:31:00;99663.97;;;3.97;72.03
61109;BME280;46995;55.740;37.402;2022-10-20T15:33:26;99669.44;;;3.92;72.32
61109;BME280;46995;55.740;37.402;2022-10-20T15:35:52;99677.53;;;3.88;72.17